Inola, OK (74036)

9:34 AM CDT on October 31, 2014 (GMT -0500)
Claremore Regional | Change Station
CLOSE
Current Station
Airport
Location: Claremore,
Elevation: 725 ft
Nearby Weather Stations
Active Advisory: Freeze Warning

Elev 725 ft 36.29 °N, 95.48 °W | Updated 19 minutes ago

Clear
Clear
46 °F
Feels Like 40 °F
N
14
Wind Variable Wind from North

Today
High -- | Low -- °F
--% Chance of Precip.
Yesterday
High -- | Low -- °F
Precip. -- in
7:43 AM 6:26 PM
First Quarter, 56% visible
Pressure 30.40 in
Visibility 10.0 miles
Clouds Scattered Clouds 2500 ft
Windchill 40 °F
Dew Point 39 °F
Humidity 76%
Rainfall 0.00 in
Snow Depth Not available.
UV 1 out of 12
Pollen 4.00 out of 12
Air Quality Not available.
Flu Activity Not available.
METAR KGCM 311415Z AUTO 36012KT 10SM SCT025 08/04 A3040 RMK AO2

More Conditions Fewer Conditions

Pressure 30.40 in
Visibility 10.0 miles
Clouds Scattered Clouds 2500 ft
Windchill 40 °F
Dew Point 39 °F
Humidity 76%
Rainfall 0.00 in
Snow Depth Not available.
UV 1 out of 12
Pollen 4.00 out of 12
Air Quality Not available.
Flu Activity Not available.
METAR KGCM 311415Z AUTO 36012KT 10SM SCT025 08/04 A3040 RMK AO2

More Conditions Fewer Conditions

10-Day Weather Forecast

Almanac

Astronomy

Oct. 31, 2014 Rise Set
Actual Time
Civil Twilight
Nautical Twilight
Astronomical Twilight
Moon
Length of Visible Light
Length of Day
Tomorrow will be .
, % of the Moon is Illuminated

Today's Extremes

State Highs State Lows

Community

WunderPhotos

Upload Photos

1,766,623 photos uploaded!

WunderBlogs® & News

Nearby

Air Quality

  Air Quality AQ Index Pollutant
Not available.

Snow Depth

Station Depth Elevation

Earthquake Activity

City Distance Mag. Time & Date
Minimum magnitude displayed is 2.5.

Coastal Water Temperatures

Place Temperature

Nearby Weather Stations